Aviation Digital Data Service (ADDS)

Output produced by METARs form (1342 UTC 26 May 2018)
found at http://www.aviationweather.gov/adds/metars/
 
TAF AMD KBAB 251805Z 2518/2617 16012KT 8000 -RA BKN030 QNH3004INS 
     BECMG 2601/2602 VRB06KT 9999 NSW BKN050 QNH3002INS 
     BECMG 2608/2609 VRB06KT 8000 -RA BR BKN015 QNH3001INS TX18/2522Z TN11/2610Z LAST NO AMDS AFT 2518 NEXT 2911
       
KBAF 261122Z 2612/2712 00000KT P6SM FEW250 
     FM261500 24012KT P6SM FEW250 
     FM270000 36004KT P6SM BKN150 
     FM270200 04004KT P6SM BKN090 
     FM270400 04005KT P6SM VCSH OVC050 
     FM270600 03007KT P6SM VCSH OVC015
       
KBAM 261135Z 2612/2712 VRB05KT P6SM SCT050 BKN200 
     FM261400 VRB06KT P6SM VCSH SCT050 BKN100 
     FM261800 32010G22KT P6SM -SHRA VCTS SCT050 BKN070CB 
     TEMPO 2620/2624 VRB15G25KT -TSRA BKN050CB 
     FM270600 VRB06KT P6SM OVC100
       
KBBD 261120Z 2612/2712 22008KT P6SM FEW250 
     FM261500 19011KT P6SM SKC
       
KBBG 261120Z 2612/2712 VRB04KT P6SM SCT250
       
KBCB 261140Z 2612/2712 00000KT P6SM FEW015 SCT045 BKN100 
     FM261400 VRB03KT P6SM BKN035 OVC080 
     FM261500 22004KT P6SM VCSH OVC050 
     TEMPO 2618/2622 4SM TSRA OVC030CB 
     FM262200 16004KT P6SM -SHRA BKN050 OVC120 
     FM270300 21003KT P6SM SCT020 OVC150
       
KBCE 261120Z 2612/2712 27004KT P6SM SKC 
     FM261400 15009KT P6SM SKC 
     FM261600 16010G18KT P6SM SKC 
     FM261900 19018G28KT P6SM SCT080 BKN130 
     FM270200 25010KT P6SM BKN100
       
KBDL 261122Z 2612/2718 18006KT P6SM FEW250 
     FM261500 24010KT P6SM FEW150 
     FM270000 36005KT P6SM BKN120 
     FM270300 06005KT P6SM VCSH OVC050 
     FM270600 04007KT P6SM VCSH OVC025 
     FM270800 03008KT P6SM VCSH OVC015
       
KBDR 261141Z 2612/2712 23006KT P6SM FEW250 
     FM261500 23010KT P6SM FEW250 
     FM262000 21010KT P6SM SCT060 BKN150 
     FM270000 23006KT P6SM VCTS SCT060CB BKN120 
     FM270500 03005KT 5SM -SHRA SCT060 OVC090 
     FM270800 04009KT 5SM -SHRA SCT025 OVC035 
     FM270900 04010KT 5SM -SHRA OVC015
       
KBED 261122Z 2612/2712 23007KT P6SM FEW250 
     FM261800 26010KT P6SM BKN200 
     FM262300 36005KT P6SM VCSH BKN060 
     FM270300 06006KT P6SM VCSH OVC020 
     FM270500 05007KT 5SM BR VCSH OVC010
       
KBFD 261126Z 2612/2712 VRB05KT P6SM SKC 
     FM261400 26006KT P6SM SCT040 
     FM261800 28007KT P6SM BKN050 
     FM270200 24006KT 5SM -SHRA BR BKN040
       
KBFF 261120Z 2612/2712 VRB05KT P6SM SKC 
     FM261800 14010KT P6SM SKC 
     FM270300 13015G25KT P6SM BKN150
       
KBFI 261130Z 2612/2712 17006KT P6SM BKN025 OVC040 
     FM261900 19006KT P6SM SCT025 BKN040 
     FM270000 32006KT P6SM BKN050 BKN200 
     FM270700 VRB03KT P6SM SCT050 SCT200
       
KBFL 261120Z 2612/2712 33008KT P6SM BKN070
       
KBFM 261123Z 2612/2712 VRB04KT P6SM SCT030 
     FM261500 09005KT P6SM SCT030 SCT200 
     FM261800 15010KT P6SM VCSH BKN050 
     TEMPO 2618/2621 VRB15G25KT 4SM TSRA BKN025CB 
     FM262200 13005KT P6SM VCSH BKN100 
     FM270400 07007KT P6SM BKN250 
     FM270900 03008KT P6SM VCSH OVC100
       
KBGM 261130Z 2612/2712 26007KT P6SM FEW250 
     FM262300 34004KT P6SM BKN150 
     FM270700 10005KT P6SM OVC035
       
KBGR 261120Z 2612/2712 VRB03KT P6SM VCSH OVC080 
     TEMPO 2612/2614 -SHRA OVC040 
     FM261400 VRB03KT P6SM -SHRA OVC035 
     FM261900 33010KT P6SM BKN060 
     FM270100 07005KT P6SM SCT060 BKN200
       
KBHB 261120Z 2612/2712 21006KT P6SM BKN100 
     TEMPO 2612/2614 -SHRA OVC060 
     FM261500 VRB02KT 6SM -SHRA OVC035 
     FM262000 35009KT P6SM BKN060 
     FM270200 07006KT P6SM SCT060 BKN180
       
KBHM 261224Z 2612/2712 21005KT P6SM OVC008 
     FM261500 20006KT P6SM BKN025 
     FM261800 19007KT P6SM VCTS BKN045CB 
     FM270000 19004KT P6SM SCT100 BKN250
       
TAF KBIF 260614Z 2606/2712 VRB06KT 9999 SKC QNH2994INS 
     BECMG 2617/2618 18015KT 9999 SKC QNH2996INS 
     BECMG 2702/2703 32009KT 9999 SCT150 QNH2998INS TX36/2621Z TN18/2612Z
       
KBIH 261125Z 2612/2712 35013KT P6SM FEW050 BKN100 
     FM261700 34013G20KT P6SM SCT100 SCT250 
     FM270000 36014G22KT P6SM BKN100 
     PROB30 2700/2703 -RA OVC100 
     FM270600 35011KT P6SM BKN100
       
KBIL 261233Z 2613/2712 05004KT P6SM SCT050 BKN110 
     FM261500 23011KT P6SM FEW120 
     FM262200 32005KT P6SM BKN120 
     FM270400 30014KT P6SM VCTS SCT060CB BKN100 
     FM270900 27007KT P6SM VCSH FEW025 SCT120
       
KBIS 261130Z 2612/2712 24003KT P6SM SKC 
     FM270500 10007KT P6SM FEW250
       
TAF AMD KBIX 261320Z 2613/2716 15006KT 9999 SCT020 SCT070 QNH2984INS 
     BECMG 2614/2615 05009KT 9000 -SHRA BKN030 QNH2983INS 
     TEMPO 2615/2621 VRB10G15KT 4800 -TSRA BKN030CB 
     BECMG 2623/2624 12006KT 9999 NSW BKN030 QNH2978INS 
     BECMG 2714/2715 04010G20KT 9999 BKN050 QNH2979INS TX29/2619Z TN21/2709Z
       
KBJC 261129Z 2612/2712 30006KT P6SM SKC 
     FM261400 VRB05KT P6SM SKC 
     FM261800 10005KT P6SM FEW120 
     FM262100 10009KT P6SM FEW120 SCT250 
     FM270200 30007KT P6SM SCT120 BKN250 
     FM270600 25006KT P6SM SCT120 BKN250
       
KBJI 261120Z 2612/2712 VRB04KT P6SM FEW250 
     FM261700 27011KT P6SM FEW250 
     FM270100 VRB03KT P6SM SKC
       
KBKE 261120Z 2612/2712 31011KT P6SM VCSH BKN100 
     FM261800 31015G20KT P6SM BKN100 
     FM270200 31010KT P6SM BKN100
       
TAF KBKF 260917Z 2609/2715 18012KT 9999 SKC QNH2987INS 
     BECMG 2616/2617 16012G18KT 9999 SKC 510009 QNH2984INS 
     BECMG 2621/2622 17020G30KT 9999 SCT220 520009 QNH2982INS 
     BECMG 2700/2701 20009KT 9999 SCT200 QNH2984INS TX33/2623Z TN11/2613Z
       
KBKW 261141Z 2612/2712 19005KT P6SM BKN100 
     FM261500 25005KT P6SM BKN035 
     FM261800 23004KT 6SM -SHRA VCTS OVC040CB 
     FM270000 19004KT P6SM -SHRA BKN050
       
KBLF 261140Z 2612/2712 20004KT P6SM SCT025 BKN100 
     FM261400 22006KT P6SM BKN030 OVC090 
     FM261800 VRB03KT P6SM VCTS BKN035CB OVC070 
     TEMPO 2620/2624 4SM TSRA OVC025CB 
     FM270100 20004KT 6SM -SHRA BKN015 OVC070
       
KBLH 261120Z 2612/2712 28007KT P6SM SKC 
     FM262000 26011G20KT P6SM SKC 
     FM270200 26010KT P6SM SKC
       
KBLI 261130Z 2612/2712 16006KT P6SM SCT060 BKN200 
     FM261500 16006KT P6SM SCT020 BKN060 
     FM262100 16010KT P6SM SCT050 SCT200 
     FM270200 18006KT P6SM SCT050
       
KBMG 261120Z 2612/2712 21005KT P6SM BKN150 
     FM261600 23006KT P6SM VCTS BKN045CB 
     FM270000 VRB03KT P6SM SCT200 AMD LTD TO CLD VIS AND WIND TIL 261300
       
KBMI 261130Z 2612/2712 27008KT 3SM BR BKN003 
     FM261330 25006KT P6SM SCT060 
     FM270800 VRB04KT 4SM BR FEW250
       
KBNA 261141Z 2612/2712 18004KT P6SM VCSH SCT040 SCT120 BKN250 
     FM262000 22006KT P6SM VCTS BKN040CB BKN120 BKN250 
     FM270200 18004KT P6SM VCSH SCT040 BKN120 BKN250
       
KBNO 261120Z 2612/2712 28011KT P6SM VCSH BKN050 
     FM261500 30015G25KT P6SM VCSH BKN100 
     FM261800 28015G25KT P6SM BKN100 
     FM270200 30010KT P6SM SCT150
       
KBOI 261120Z 2612/2712 30007KT P6SM BKN100 
     FM261800 31015G25KT P6SM BKN100 
     FM262100 31015G25KT P6SM VCSH SCT050 BKN100 
     FM270200 31015G25KT P6SM BKN150
       
KBOS 261122Z 2612/2718 24012KT P6SM FEW200 
     FM261800 26012KT P6SM BKN200 
     FM262300 36008KT P6SM VCSH BKN050 
     FM270200 06008KT 5SM BR VCSH OVC040 
     FM270400 05010KT 3SM BR VCSH OVC015 
     FM270900 06013KT P6SM VCSH OVC015
       
KBPI 261120Z 2612/2712 VRB05KT P6SM SKC 
     FM261800 17012G20KT P6SM SCT100 
     FM270200 34008KT P6SM SCT100 BKN200
       
KBPK 261123Z 2612/2712 VRB03KT 3SM BR BKN110 
     TEMPO 2612/2614 1SM BR 
     FM261700 35005KT P6SM SCT040 
     FM270000 VRB03KT P6SM SCT250 
     TEMPO 2708/2712 3SM BR
       
KBPT 261132Z 2612/2712 VRB03KT P6SM VCSH SCT150 
     FM261600 25006KT P6SM VCTS SCT035CB BKN080 
     TEMPO 2620/2624 2SM TSRA BKN025CB OVC080 
     FM270100 VRB03KT P6SM SKC
       
KBRD 261139Z 2612/2712 VRB03KT P6SM BKN110 
     FM261400 27005KT P6SM FEW100 
     FM262300 29008KT P6SM SKC 
     FM270200 27004KT P6SM SKC
       
KBRL 261120Z 2612/2712 17005KT P6SM BKN100 
     FM261400 22006KT P6SM SCT050
       
KBRO 261120Z 2612/2712 17008KT P6SM FEW015 
     FM261500 17008KT P6SM SCT040 
     FM262100 12012KT P6SM FEW050 
     FM270300 15003KT P6SM FEW015
       
KBTL 261140Z 2612/2712 20004KT P6SM BKN100 
     FM261400 24007KT P6SM BKN100 
     FM262300 VRB04KT P6SM SKC
       
KBTM 261314Z 2613/2712 VRB04KT P6SM SCT010 
     TEMPO 2613/2615 BKN007 
     FM262100 23010KT P6SM VCSH SCT080 
     FM270000 28010G20KT P6SM -SHRA VCTS BKN060CB OVC080 
     FM270300 33007KT P6SM VCSH BKN060
       
KBTR 261120Z 2612/2712 07003KT P6SM SKC 
     TEMPO 2615/2619 4SM TSRA BKN025CB 
     FM261900 00000KT P6SM VCTS BKN030CB BKN200 
     FM270300 15004KT P6SM BKN040 BKN250
       
KBTV 261132Z 2612/2712 VRB04KT P6SM VCSH BKN070 
     FM261900 32008KT P6SM VCSH OVC028 
     FM270100 VRB04KT P6SM OVC035
       
KBUF 261120Z 2612/2712 20007KT P6SM BKN200 
     FM261400 23012KT P6SM BKN130 
     FM261700 23013G19KT P6SM BKN120 
     FM270000 VRB03KT P6SM SCT120
       
KBUR 261312Z 2613/2712 VRB03KT P6SM SCT015 
     FM261400 VRB03KT P6SM BKN015 
     FM261900 17010KT P6SM SCT030 
     FM270400 VRB03KT P6SM SKC
       
KBVI 261124Z 2612/2712 23004KT P6SM SCT060 
     FM262000 22005KT 6SM -RA VCTS BKN040CB 
     FM270600 VRB02KT P6SM VCSH BKN040
       
KBVO 261228Z 2612/2712 00000KT P6SM SKC 
     FM261400 14005KT P6SM SCT025
       
KBWG 261120Z 2612/2712 VRB03KT P6SM VCSH FEW045 SCT200 
     FM261800 22005KT P6SM VCTS BKN035CB 
     FM270000 19004KT P6SM OVC035
       
KBWI 261140Z 2612/2718 23005KT P6SM BKN100 
     FM261900 22008G16KT P6SM VCTS BKN050CB 
     FM262200 21007KT P6SM BKN050 
     FM270800 VRB03KT 5SM BR SCT080 
     FM271200 VRB03KT P6SM SCT080 
     FM271700 22005KT P6SM VCTS BKN050CB
       
KBYI 261121Z 2612/2712 24007KT P6SM FEW120 
     FM261900 28011KT P6SM VCTS SCT060CB BKN090 
     TEMPO 2621/2624 VRB25G40KT 6SM -TSRA BKN060CB 
     FM270300 25010KT P6SM VCTS OVC070CB
       
KBZN 261137Z 2612/2718 VRB05KT P6SM FEW100 
     FM262100 22010KT P6SM SCT060 BKN120 
     PROB30 2700/2706 VRB20G30KT -TSRA BKN040CB 
     FM270700 VRB05KT P6SM SCT030 BKN050 
     FM271400 30009KT P6SM -SHRA SCT020 BKN040